Terminal Aerodrome Forecast
Issued by NWS

Home | Current Version | Previous Version | Text Only | Print | Product List | Glossary On
Versions: 1 2 3 4 5 6 7 8 9 10 11 12 13 14 15 16 17 18 19 20 21 22 23
263
FTUS41 KAKQ 250423 AAB
TAFPHF
TAF AMD
KPHF 250423Z 2504/2524 05012KT 4SM -SHRA BR OVC002
     FM250700 08015G25KT 6SM SHRA OVC003 WS020/10050KT
     FM251100 08017G26KT 4SM SHRA OVC006
     FM251800 07012G19KT 4SM SHRA OVC020
     FM251900 08010KT 4SM SHRA OVC015
     FM252200 08007KT 6SM -SHRA BKN015=

USA.gov is the U.S. government's official web portal to all federal, state and local government web resources and services.